Ana Sayfa
METAR-TAF:

METAR-TAF

Havaalanları :

Winchester Regional Airport

Winchester, Virginia, Amerika Birleşik Devletleri

Enlem: 39-09N, Boylam: 078-09W, yükseklik: 222 m

Güncel hava durumu gözlemi

Rapor saat 20:35 UTC de 24 dakika önce yapıldı.
Rüzgar güney/güneydoğudan 3 kt
Sıcaklık 8°C
Nem 49%
Basınç 1026 hPa
Görüş mesafesi: 16.1 km
11000 ft yükseklikte çok bulutlu

METAR: KOKV 242035Z AUTO 15003KT 10SM OVC110 08/M02 A3030 RMK AO2

Saat: 15:59 (20:59 UTC)


TAF: eksik

4.000'den fazla havaalanı için hava durumu gözlemleri ve tahminleri (METAR ve TAF raporları).

Kullanılabilir istasyonlar harita üzerinde sarı ve kırmızı noktalarla gösterilir.

İstasyonun adını görmek için fareyi noktanın üzerinde gezdirin.

Sonrasında hava gözlem ve tahminlerini görmek için tıklayın.

Haritayı değiştirmek için: yaklaştırmak için siyah artı işaretli yeşil düğmeye ve uzaklaştırmak için de eksi işaretli düğmeye hızla tıklayın; bitişik haritalar için yeşil okları kullanın.


METAR-TAF: